Time;durP1;ratioP1;P1;durP2;ratioP2;P2;SDS_P1;SDS_P2;PMS_P1;PMS_P2;Temp;Humidity;BMP_temperature;BMP_pressure;BME280_temperature;BME280_humidity;BME280_pressure;Samples;Min_cycle;Max_cycle;Signal;HPM_P1;HPM_P2
2021/10/20 00:01:55;;;;;;;18.05;7.28;;;;;;;-0.05;100.00;102026.23;1720761;82;20883;-82
2021/10/20 00:04:21;;;;;;;21.73;8.10;;;;;;;-0.09;100.00;102031.02;1694138;83;20903;-83
2021/10/20 00:06:47;;;;;;;23.55;8.43;;;;;;;-0.16;100.00;102035.24;1721210;83;21151;-83
2021/10/20 00:09:13;;;;;;;27.65;7.95;;;;;;;-0.20;100.00;102033.91;1720919;83;21051;-83
2021/10/20 00:11:39;;;;;;;25.68;8.25;;;;;;;-0.23;100.00;102030.23;1720272;82;20915;-83
2021/10/20 00:14:05;;;;;;;25.45;8.13;;;;;;;-0.26;100.00;102033.19;1720486;83;21038;-82
2021/10/20 00:16:31;;;;;;;21.45;8.55;;;;;;;-0.28;100.00;102035.16;1718874;80;21026;-83
2021/10/20 00:18:58;;;;;;;25.95;8.70;;;;;;;-0.32;100.00;102038.60;1724094;80;21073;-80
2021/10/20 00:21:26;;;;;;;19.35;8.03;;;;;;;-0.35;100.00;102042.05;1718146;83;21033;-83
2021/10/20 00:23:53;;;;;;;23.57;8.23;;;;;;;-0.39;100.00;102044.15;1718361;83;21022;-83
2021/10/20 00:26:19;;;;;;;30.25;9.23;;;;;;;-0.44;100.00;102042.47;1718664;83;20991;-83
2021/10/20 00:28:45;;;;;;;21.70;8.58;;;;;;;-0.49;100.00;102042.91;1718566;82;21051;-83
2021/10/20 00:31:11;;;;;;;29.67;9.48;;;;;;;-0.48;100.00;102043.23;1729948;80;21737;-82
2021/10/20 00:33:37;;;;;;;28.57;9.50;;;;;;;-0.49;100.00;102048.70;1748486;81;20897;-83
2021/10/20 00:36:03;;;;;;;30.90;9.60;;;;;;;-0.51;100.00;102052.81;1748489;81;20971;-83
2021/10/20 00:38:30;;;;;;;22.55;8.78;;;;;;;-0.55;100.00;102051.95;1748648;81;21042;-83
2021/10/20 00:40:56;;;;;;;24.00;8.90;;;;;;;-0.60;100.00;102051.56;1748756;81;21024;-83
2021/10/20 00:43:24;;;;;;;23.55;8.95;;;;;;;-0.63;100.00;102054.02;1748398;81;21527;-83
2021/10/20 00:45:50;;;;;;;23.67;9.68;;;;;;;-0.66;100.00;102049.52;1748403;81;21508;-83
2021/10/20 00:48:17;;;;;;;23.42;8.75;;;;;;;-0.67;100.00;102046.55;1748578;81;21027;-83
2021/10/20 00:50:43;;;;;;;22.27;8.93;;;;;;;-0.69;100.00;102053.30;1748511;81;21418;-83
2021/10/20 00:53:11;;;;;;;25.50;9.48;;;;;;;-0.69;100.00;102051.97;1748693;81;21087;-84
2021/10/20 00:55:38;;;;;;;23.95;8.45;;;;;;;-0.68;100.00;102053.63;1748908;81;21134;-82
2021/10/20 00:58:05;;;;;;;27.30;9.75;;;;;;;-0.71;100.00;102049.95;1748432;81;21044;-82
2021/10/20 01:00:32;;;;;;;22.48;7.80;;;;;;;-0.70;100.00;102052.97;1748753;82;21023;-83
2021/10/20 01:02:57;;;;;;;22.77;8.58;;;;;;;-0.73;100.00;102051.94;1748708;81;21595;-83
2021/10/20 01:05:25;;;;;;;22.35;7.85;;;;;;;-0.78;100.00;102054.20;1748733;81;20849;-83
2021/10/20 01:07:51;;;;;;;22.15;9.15;;;;;;;-0.83;100.00;102059.92;1748192;81;21481;-83
2021/10/20 01:10:17;;;;;;;22.27;8.38;;;;;;;-0.85;100.00;102065.88;1748498;81;21517;-83
2021/10/20 01:12:43;;;;;;;23.57;9.03;;;;;;;-0.86;100.00;102067.33;1748475;81;20948;-83
2021/10/20 01:15:14;;;;;;;24.23;9.05;;;;;;;-0.85;100.00;102066.34;1749743;81;20989;-83
2021/10/20 01:17:41;;;;;;;18.85;7.83;;;;;;;-0.85;100.00;102076.92;1756970;80;21023;-84
2021/10/20 01:20:09;;;;;;;17.25;7.85;;;;;;;-0.87;100.00;102085.02;1778312;80;21117;-84
2021/10/20 01:22:36;;;;;;;22.75;8.58;;;;;;;-0.87;100.00;102086.34;1785062;80;21067;-84
2021/10/20 01:25:03;;;;;;;23.62;8.73;;;;;;;-0.87;100.00;102091.64;1784482;80;21268;-85
2021/10/20 01:27:29;;;;;;;23.83;8.28;;;;;;;-0.86;100.00;102092.47;1785108;80;21535;-85
2021/10/20 01:30:00;;;;;;;21.33;8.28;;;;;;;-0.83;100.00;102094.81;1785183;80;21003;-85
2021/10/20 01:32:27;;;;;;;21.73;8.90;;;;;;;-0.81;100.00;102090.22;1724473;80;21076;-85
2021/10/20 01:34:54;;;;;;;25.30;9.00;;;;;;;-0.83;100.00;102093.50;1715348;83;21582;-85
2021/10/20 01:37:22;;;;;;;28.23;9.28;;;;;;;-0.87;100.00;102098.25;1715567;82;21531;-85
2021/10/20 01:39:48;;;;;;;25.52;8.80;;;;;;;-0.89;100.00;102105.50;1715461;82;21113;-83
2021/10/20 01:42:14;;;;;;;17.23;7.75;;;;;;;-0.91;100.00;102100.86;1715316;83;21035;-85
2021/10/20 01:44:40;;;;;;;23.70;8.78;;;;;;;-0.96;100.00;102102.61;1715407;83;21071;-84
2021/10/20 01:47:07;;;;;;;17.75;7.60;;;;;;;-1.00;100.00;102102.58;1715324;83;21468;-84
2021/10/20 01:49:33;;;;;;;19.67;7.92;;;;;;;-1.05;100.00;102106.64;1715411;83;21073;-84
2021/10/20 01:51:59;;;;;;;15.55;6.78;;;;;;;-1.11;100.00;102108.55;1715363;83;20899;-81
2021/10/20 01:54:25;;;;;;;20.65;7.40;;;;;;;-1.16;100.00;102109.80;1715320;83;20904;-83
2021/10/20 01:56:51;;;;;;;19.15;8.10;;;;;;;-1.17;100.00;102114.75;1715358;82;21598;-84
2021/10/20 01:59:17;;;;;;;22.00;8.15;;;;;;;-1.19;100.00;102114.55;1715525;83;21535;-84
2021/10/20 02:01:43;;;;;;;22.22;8.83;;;;;;;-1.25;100.00;102114.63;1715017;83;21008;-82
2021/10/20 02:04:10;;;;;;;21.35;8.20;;;;;;;-1.27;100.00;102120.55;1715285;83;20860;-84
2021/10/20 02:06:37;;;;;;;19.98;8.00;;;;;;;-1.26;100.00;102117.44;1715394;83;21011;-83
2021/10/20 02:09:08;;;;;;;21.60;8.55;;;;;;;-1.26;100.00;102117.44;1715360;83;21823;-83
2021/10/20 02:11:36;;;;;;;23.45;8.43;;;;;;;-1.26;100.00;102119.59;1714851;83;21069;-84
2021/10/20 02:14:05;;;;;;;24.15;8.63;;;;;;;-1.24;100.00;102108.84;1715482;82;21023;-83
2021/10/20 02:16:31;;;;;;;23.40;8.08;;;;;;;-1.26;100.00;102108.18;1717810;82;21042;-83
2021/10/20 02:18:57;;;;;;;28.75;10.93;;;;;;;-1.29;100.00;102118.55;1721079;80;21082;-83
2021/10/20 02:21:23;;;;;;;25.62;9.70;;;;;;;-1.34;100.00;102121.28;1734701;82;21241;-83
2021/10/20 02:23:49;;;;;;;37.10;12.80;;;;;;;-1.38;100.00;102120.25;1727697;82;21082;-83
2021/10/20 02:26:16;;;;;;;31.27;11.43;;;;;;;-1.37;100.00;102122.41;1748633;82;21007;-83
2021/10/20 02:28:42;;;;;;;31.23;11.40;;;;;;;-1.38;100.00;102125.53;1748479;82;20988;-84
2021/10/20 02:31:08;;;;;;;28.27;11.18;;;;;;;-1.37;100.00;102129.84;1752932;80;20885;-83
2021/10/20 02:33:34;;;;;;;22.95;9.63;;;;;;;-1.36;100.00;102126.70;1779942;80;21606;-82
2021/10/20 02:36:00;;;;;;;32.38;11.33;;;;;;;-1.37;100.00;102134.30;1779911;80;21477;-82
2021/10/20 02:38:26;;;;;;;30.52;10.93;;;;;;;-1.39;100.00;102141.03;1780255;80;20956;-83
2021/10/20 02:40:52;;;;;;;30.32;10.88;;;;;;;-1.40;100.00;102136.73;1779618;80;21036;-83
2021/10/20 02:43:18;;;;;;;26.73;10.82;;;;;;;-1.41;100.00;102135.57;1779930;80;20876;-83
2021/10/20 02:45:44;;;;;;;24.85;9.75;;;;;;;-1.45;100.00;102138.97;1780349;80;21108;-83
2021/10/20 02:48:11;;;;;;;22.17;8.80;;;;;;;-1.51;100.00;102138.70;1753746;80;20995;-83
2021/10/20 02:50:37;;;;;;;18.98;7.65;;;;;;;-1.51;100.00;102137.39;1779778;80;21022;-83
2021/10/20 02:53:03;;;;;;;22.58;8.45;;;;;;;-1.54;100.00;102141.14;1779920;80;21035;-82
2021/10/20 02:55:29;;;;;;;27.42;11.03;;;;;;;-1.55;100.00;102135.52;1780631;80;20960;-80
2021/10/20 02:57:56;;;;;;;33.65;12.40;;;;;;;-1.60;100.00;102129.33;1780259;80;21658;-83
2021/10/20 03:00:22;;;;;;;37.38;12.93;;;;;;;-1.59;100.00;102120.91;1779854;80;21039;-83
2021/10/20 03:02:48;;;;;;;29.20;10.80;;;;;;;-1.63;100.00;102121.68;1780324;80;21054;-83
2021/10/20 03:05:15;;;;;;;32.38;12.25;;;;;;;-1.64;100.00;102124.48;1753321;80;21554;-83
2021/10/20 03:07:49;;;;;;;28.83;10.08;;;;;;;-1.66;100.00;102124.61;1780142;80;21047;-84
2021/10/20 03:10:16;;;;;;;29.05;10.45;;;;;;;-1.68;100.00;102123.91;1780336;80;21110;-84
2021/10/20 03:12:43;;;;;;;32.70;11.08;;;;;;;-1.70;100.00;102131.16;1779771;80;20984;-84
2021/10/20 03:15:11;;;;;;;28.65;11.73;;;;;;;-1.69;100.00;102131.99;1779884;80;21158;-83
2021/10/20 03:17:38;;;;;;;32.23;12.23;;;;;;;-1.74;100.00;102124.97;1754705;80;21888;-83
2021/10/20 03:20:09;;;;;;;42.48;13.58;;;;;;;-1.73;100.00;102128.80;1710300;82;21071;-83
2021/10/20 03:22:41;;;;;;;34.73;14.45;;;;;;;-1.72;100.00;102123.02;1710237;83;21118;-83
2021/10/20 03:25:09;;;;;;;40.52;15.05;;;;;;;-1.75;100.00;102131.23;1710172;83;21050;-83
2021/10/20 03:27:47;;;;;;;40.88;15.05;;;;;;;-1.80;100.00;102130.81;1709961;83;21074;-83
2021/10/20 03:30:16;;;;;;;40.92;13.55;;;;;;;-1.80;100.00;102140.06;1702614;81;21059;-83
2021/10/20 03:32:42;;;;;;;41.13;14.38;;;;;;;-1.81;100.00;102139.73;1744910;81;21064;-83
2021/10/20 03:35:10;;;;;;;40.15;13.22;;;;;;;-1.84;100.00;102132.42;1747575;81;21121;-83
2021/10/20 03:37:36;;;;;;;40.28;13.00;;;;;;;-1.86;100.00;102138.81;1747517;81;21105;-84
2021/10/20 03:40:06;;;;;;;40.00;14.05;;;;;;;-1.86;100.00;102150.21;1747728;81;21047;-84
2021/10/20 03:42:33;;;;;;;37.67;13.03;;;;;;;-1.86;100.00;102152.02;1747377;81;21040;-83
2021/10/20 03:44:59;;;;;;;37.83;12.07;;;;;;;-1.86;100.00;102152.02;1747225;81;20996;-83
2021/10/20 03:47:26;;;;;;;36.40;11.57;;;;;;;-1.88;100.00;102155.31;1747378;81;21275;-84
2021/10/20 03:49:53;;;;;;;33.00;11.73;;;;;;;-1.88;100.00;102156.14;1747674;81;21039;-84
2021/10/20 03:52:19;;;;;;;33.78;12.25;;;;;;;-1.90;100.00;102162.05;1747346;81;21118;-86
2021/10/20 03:54:46;;;;;;;38.88;11.63;;;;;;;-1.92;100.00;102167.94;1746914;81;21587;-85
2021/10/20 03:57:13;;;;;;;35.23;10.90;;;;;;;-1.90;100.00;102173.93;1747321;81;21551;-83
2021/10/20 03:59:39;;;;;;;28.20;11.43;;;;;;;-1.90;100.00;102175.25;1747688;82;21134;-83
2021/10/20 04:02:05;;;;;;;32.70;11.75;;;;;;;-1.91;100.00;102178.87;1747076;81;21085;-83
2021/10/20 04:04:31;;;;;;;38.10;11.35;;;;;;;-1.91;100.00;102180.66;1747070;81;20987;-87
2021/10/20 04:06:56;;;;;;;35.15;12.13;;;;;;;-1.93;100.00;102190.06;1754810;80;21011;-82
2021/10/20 04:09:22;;;;;;;33.33;11.83;;;;;;;-1.95;100.00;102190.67;1778971;80;20935;-83
2021/10/20 04:11:48;;;;;;;31.23;11.37;;;;;;;-1.99;100.00;102186.65;1748455;80;21785;-82
2021/10/20 04:14:14;;;;;;;33.23;11.93;;;;;;;-1.97;100.00;102191.78;1778988;80;20943;-82
2021/10/20 04:16:40;;;;;;;32.03;11.50;;;;;;;-1.96;100.00;102200.91;1776356;80;20869;-82
2021/10/20 04:19:05;;;;;;;33.15;11.95;;;;;;;-1.98;100.00;102200.69;1768572;80;20964;-82
2021/10/20 04:21:31;;;;;;;31.23;12.53;;;;;;;-1.94;100.00;102202.93;1779374;80;20861;-82
2021/10/20 04:23:57;;;;;;;33.38;11.55;;;;;;;-1.91;100.00;102208.39;1779193;80;21138;-80
2021/10/20 04:26:23;;;;;;;30.43;11.70;;;;;;;-1.91;100.00;102209.25;1779011;80;20951;-82
2021/10/20 04:28:49;;;;;;;33.53;11.57;;;;;;;-1.87;100.00;102211.95;1778949;80;21000;-82
2021/10/20 04:31:15;;;;;;;29.23;10.75;;;;;;;-1.83;100.00;102217.30;1779818;80;21617;-82
2021/10/20 04:33:41;;;;;;;36.28;11.08;;;;;;;-1.86;100.00;102214.11;1785031;80;20994;-82
2021/10/20 04:36:07;;;;;;;33.55;11.15;;;;;;;-1.83;100.00;102221.27;1784838;80;21900;-84
2021/10/20 04:38:33;;;;;;;31.02;11.15;;;;;;;-1.74;100.00;102226.70;1752121;80;21037;-82
2021/10/20 04:40:59;;;;;;;33.50;11.33;;;;;;;-1.64;100.00;102222.27;1737426;82;20963;-82
2021/10/20 04:43:25;;;;;;;38.58;10.78;;;;;;;-1.53;100.00;102226.56;1731825;82;21023;-82
2021/10/20 04:45:53;;;;;;;30.60;11.65;;;;;;;-1.43;100.00;102230.05;1745664;82;21007;-82
2021/10/20 04:48:20;;;;;;;33.50;11.38;;;;;;;-1.34;100.00;102233.66;1720853;82;21035;-82
2021/10/20 04:50:46;;;;;;;33.80;11.80;;;;;;;-1.22;100.00;102239.14;1720873;83;20964;-82
2021/10/20 04:53:12;;;;;;;29.23;10.45;;;;;;;-0.88;100.00;102245.25;1736722;82;21016;-82
2021/10/20 04:55:38;;;;;;;26.23;9.83;;;;;;;0.70;100.00;102249.84;1723083;82;20971;-86
2021/10/20 04:58:07;;;;;;;27.07;9.93;;;;;;;2.89;100.00;102244.97;1721180;83;20881;-83
2021/10/20 05:00:31;;;;;;;30.10;10.65;;;;;;;4.44;100.00;102244.83;1723881;81;20988;-82
2021/10/20 05:02:57;;;;;;;34.70;11.03;;;;;;;5.55;100.00;102245.91;1740588;80;21709;-83
2021/10/20 05:05:23;;;;;;;29.02;9.73;;;;;;;6.43;100.00;102251.27;1741222;82;20892;-83
2021/10/20 05:07:52;;;;;;;29.80;10.65;;;;;;;7.20;100.00;102247.77;1740207;80;21099;-83
2021/10/20 05:10:21;;;;;;;28.32;10.32;;;;;;;7.41;100.00;102253.56;1740431;82;21037;-84
2021/10/20 05:12:47;;;;;;;38.53;11.50;;;;;;;7.11;100.00;102249.77;1741900;82;22038;-82
2021/10/20 05:15:15;;;;;;;32.58;10.20;;;;;;;6.98;100.00;102249.69;1750605;82;21568;-83
2021/10/20 05:17:43;;;;;;;29.32;11.40;;;;;;;6.76;100.00;102253.72;1754627;80;21027;-81
2021/10/20 05:20:12;;;;;;;36.40;11.93;;;;;;;6.95;100.00;102256.27;1727163;81;21521;-82
2021/10/20 05:22:39;;;;;;;34.43;12.23;;;;;;;6.67;100.00;102260.24;1748239;81;21046;-81
2021/10/20 05:25:08;;;;;;;50.92;17.37;;;;;;;6.36;100.00;102253.89;1748511;81;21338;-83
2021/10/20 05:27:34;;;;;;;54.83;18.70;;;;;;;6.12;100.00;102257.76;1748394;81;21062;-83
2021/10/20 05:30:01;;;;;;;55.20;17.52;;;;;;;5.87;100.00;102258.55;1749621;81;20956;-83
2021/10/20 05:32:28;;;;;;;42.90;14.95;;;;;;;6.21;100.00;102258.47;1775335;80;21566;-83
2021/10/20 05:34:55;;;;;;;40.95;14.40;;;;;;;7.86;100.00;102253.48;1729263;80;21551;-84
2021/10/20 05:37:22;;;;;;;34.83;12.68;;;;;;;9.57;100.00;102266.41;1723209;83;21646;-84
2021/10/20 05:39:48;;;;;;;31.55;12.85;;;;;;;10.98;100.00;102268.10;1723356;82;20984;-85
2021/10/20 05:42:16;;;;;;;33.63;12.43;;;;;;;12.89;100.00;102276.72;1726710;81;20996;-85
2021/10/20 05:44:42;;;;;;;30.80;11.22;;;;;;;14.75;100.00;102277.55;1740351;82;20997;-85
2021/10/20 05:47:09;;;;;;;23.45;9.68;;;;;;;16.23;82.25;102282.28;1751538;81;21001;-83
2021/10/20 05:49:35;;;;;;;23.00;9.48;;;;;;;17.63;70.99;102278.45;1738332;81;21143;-84
2021/10/20 05:52:01;;;;;;;18.62;8.70;;;;;;;18.81;61.20;102276.84;1735744;82;21207;-85
2021/10/20 05:54:27;;;;;;;20.32;8.18;;;;;;;19.91;54.31;102273.00;1740399;82;21736;-86
2021/10/20 05:56:52;;;;;;;18.15;8.88;;;;;;;20.67;52.58;102274.44;1740062;82;20948;-85
2021/10/20 05:59:23;;;;;;;18.35;9.88;;;;;;;21.51;48.41;102276.92;1738376;81;20885;-86
2021/10/20 06:01:46;;;;;;;22.10;9.43;;;;;;;21.91;45.46;102285.20;1743220;80;21068;-85
2021/10/20 06:04:12;;;;;;;24.43;11.45;;;;;;;22.42;42.40;102298.77;1737771;81;21084;-86
2021/10/20 06:06:38;;;;;;;21.62;12.20;;;;;;;23.23;41.09;102306.20;1761666;81;20963;-86
2021/10/20 06:09:04;;;;;;;21.68;12.03;;;;;;;23.61;39.43;102296.38;1746027;81;20904;-86
2021/10/20 06:11:30;;;;;;;22.95;11.73;;;;;;;24.17;38.99;102298.51;1715660;82;21064;-90
2021/10/20 06:13:57;;;;;;;21.75;11.38;;;;;;;24.74;37.63;102290.56;1739221;82;22195;-86
2021/10/20 06:16:23;;;;;;;32.90;21.82;;;;;;;25.48;36.56;102280.87;1739848;82;21019;-85
2021/10/20 06:18:49;;;;;;;20.37;12.70;;;;;;;26.97;34.55;102291.64;1738444;81;20911;-85
2021/10/20 06:21:15;;;;;;;17.10;7.90;;;;;;;26.97;34.55;102291.64;1736818;82;20970;-85
2021/10/20 06:23:40;;;;;;;17.12;8.08;;;;;;;27.41;32.11;102288.16;1735349;81;21016;-86
2021/10/20 06:26:07;;;;;;;38.35;34.33;;;;;;;27.44;30.58;102284.72;1739283;82;21897;-85
2021/10/20 06:28:33;;;;;;;14.38;7.47;;;;;;;27.75;30.14;102284.96;1742618;81;21062;-85
2021/10/20 06:31:00;;;;;;;13.55;6.87;;;;;;;28.51;30.12;102291.66;1709013;82;21075;-85
2021/10/20 06:33:25;;;;;;;12.30;7.03;;;;;;;28.88;29.93;102292.33;1732286;82;20989;-85
2021/10/20 06:35:54;;;;;;;11.10;6.83;;;;;;;29.03;29.51;102295.84;1744518;82;20970;-85
2021/10/20 06:38:20;;;;;;;13.65;7.17;;;;;;;29.91;28.57;102302.45;1745573;82;21693;-85
2021/10/20 06:40:46;;;;;;;14.53;7.05;;;;;;;29.91;28.57;102302.45;1747556;81;21017;-88
2021/10/20 06:43:12;;;;;;;9.50;6.58;;;;;;;30.14;26.35;102309.11;1759240;81;21698;-86
2021/10/20 06:45:38;;;;;;;16.15;7.00;;;;;;;30.14;27.50;102304.94;1752430;80;20891;-88
2021/10/20 06:48:07;;;;;;;24.10;17.73;;;;;;;30.60;26.60;102304.09;1747501;80;20848;-85
2021/10/20 06:50:34;;;;;;;14.38;7.05;;;;;;;31.00;25.88;102304.57;1707148;83;21058;-86
2021/10/20 06:53:00;;;;;;;12.60;7.25;;;;;;;31.51;25.42;102302.48;1710542;83;21077;-86
2021/10/20 06:55:28;;;;;;;10.95;7.50;;;;;;;31.65;24.23;102306.41;1708470;81;21630;-85
2021/10/20 06:57:56;;;;;;;15.68;7.00;;;;;;;31.84;24.79;102309.00;1706402;82;21121;-88
2021/10/20 07:00:22;;;;;;;11.15;6.72;;;;;;;32.07;23.63;102298.78;1672364;83;21098;-93
2021/10/20 07:02:47;;;;;;;10.70;6.00;;;;;;;32.32;23.84;102306.85;1666876;84;21133;-90
2021/10/20 07:05:13;;;;;;;8.80;5.97;;;;;;;32.72;22.56;102295.89;1690262;83;20959;-94
2021/10/20 07:07:39;;;;;;;9.15;6.35;;;;;;;32.91;22.19;102295.83;1666360;84;20931;-92
2021/10/20 07:10:08;;;;;;;10.58;6.28;;;;;;;33.16;21.54;102290.70;1689462;83;20864;-93
2021/10/20 07:12:37;;;;;;;10.70;6.72;;;;;;;33.06;21.21;102293.31;1689747;83;21094;-95
2021/10/20 07:15:04;;;;;;;11.33;6.75;;;;;;;33.03;22.29;102297.65;1690309;83;22054;-94
2021/10/20 07:17:30;;;;;;;11.53;5.95;;;;;;;33.35;22.37;102294.58;1688901;83;21109;-94
2021/10/20 07:19:56;;;;;;;10.00;5.95;;;;;;;32.68;21.19;102295.00;1688484;83;21662;-93
2021/10/20 07:22:21;;;;;;;11.12;5.85;;;;;;;32.50;21.80;102304.44;1688732;82;20911;-95
2021/10/20 07:24:47;;;;;;;11.97;6.60;;;;;;;32.91;21.14;102295.83;1688641;82;20990;-93
2021/10/20 07:27:13;;;;;;;11.75;6.60;;;;;;;33.17;19.88;102304.08;1688523;82;21386;-94
2021/10/20 07:29:40;;;;;;;8.15;5.85;;;;;;;33.69;20.57;102307.52;1689429;82;21114;-95
2021/10/20 07:32:08;;;;;;;9.53;6.22;;;;;;;33.94;19.81;102308.44;1688891;82;21125;-93
2021/10/20 07:34:35;;;;;;;8.93;6.28;;;;;;;33.89;19.31;102302.59;1690127;82;21125;-94
2021/10/20 07:37:01;;;;;;;8.48;4.47;;;;;;;34.23;19.10;102297.64;1688348;82;21112;-92
2021/10/20 07:39:27;;;;;;;7.75;4.05;;;;;;;34.66;18.37;102297.55;1687674;82;21980;-92
2021/10/20 07:41:53;;;;;;;5.70;4.37;;;;;;;34.89;17.39;102283.36;1687499;82;20996;-94
2021/10/20 07:44:19;;;;;;;7.03;3.52;;;;;;;34.74;17.16;102290.83;1687857;82;21081;-91
2021/10/20 07:46:45;;;;;;;7.08;4.03;;;;;;;33.78;16.84;102288.25;1694476;82;21003;-93
2021/10/20 07:49:12;;;;;;;4.00;3.60;;;;;;;32.27;17.27;102291.23;1720989;83;21274;-93
2021/10/20 07:51:39;;;;;;;6.83;3.58;;;;;;;31.45;17.87;102294.39;1720280;82;21863;-92
2021/10/20 07:54:05;;;;;;;4.35;3.50;;;;;;;31.70;17.73;102293.34;1720906;83;21072;-91
2021/10/20 07:59:02;;;;;;;9.10;4.35;;;;;;;32.88;17.31;102285.39;1697521;83;21441;-91
2021/10/20 08:01:29;;;;;;;7.08;4.65;;;;;;;33.18;17.22;102279.97;1699918;84;21461;-89
2021/10/20 08:03:55;;;;;;;8.18;4.80;;;;;;;33.63;17.37;102284.45;1699984;84;21101;-93
2021/10/20 08:06:21;;;;;;;5.45;4.05;;;;;;;33.98;16.71;102284.72;1697773;84;20905;-91
2021/10/20 08:08:47;;;;;;;6.42;4.30;;;;;;;33.93;17.01;102285.25;1698572;84;20956;-93
2021/10/20 08:11:13;;;;;;;6.03;4.35;;;;;;;34.17;16.98;102280.98;1645160;87;20913;-93
2021/10/20 08:13:39;;;;;;;7.37;4.37;;;;;;;34.36;16.57;102281.61;1644997;87;21997;-93
2021/10/20 08:16:05;;;;;;;6.28;4.87;;;;;;;34.22;16.04;102290.44;1644967;87;21714;-93
2021/10/20 08:18:31;;;;;;;5.92;4.08;;;;;;;34.05;15.53;102276.44;1642925;86;20910;-92
2021/10/20 08:20:57;;;;;;;7.90;4.10;;;;;;;33.98;15.61;102288.92;1644434;87;21280;-92
2021/10/20 08:23:23;;;;;;;3.47;3.12;;;;;;;33.66;16.12;102285.89;1645300;87;20862;-93
2021/10/20 08:25:49;;;;;;;4.08;3.55;;;;;;;33.78;15.72;102278.47;1644075;87;22036;-92
2021/10/20 08:28:15;;;;;;;5.37;3.40;;;;;;;33.47;15.84;102264.44;1642789;87;21163;-89
2021/10/20 08:30:41;;;;;;;5.50;3.20;;;;;;;33.34;15.49;102263.03;1642906;87;21088;-91
2021/10/20 08:33:07;;;;;;;5.53;2.85;;;;;;;32.21;15.75;102262.58;1643959;87;20966;-91
2021/10/20 08:35:33;;;;;;;5.25;3.02;;;;;;;29.72;16.12;102273.31;1661757;84;21433;-90
2021/10/20 08:38:03;;;;;;;7.45;3.35;;;;;;;27.45;17.36;102268.94;1691888;84;21040;-90
2021/10/20 08:40:37;;;;;;;7.12;3.70;;;;;;;25.47;19.26;102269.02;1669675;83;21283;-92
2021/10/20 08:43:04;;;;;;;8.18;3.35;;;;;;;23.81;20.49;102267.64;1663642;86;21073;-91
2021/10/20 08:45:31;;;;;;;7.05;2.80;;;;;;;22.37;21.46;102271.38;1663494;86;21157;-88
2021/10/20 08:47:58;;;;;;;7.75;2.92;;;;;;;21.27;22.70;102270.03;1663172;86;21101;-88
2021/10/20 08:50:28;;;;;;;5.83;2.85;;;;;;;20.12;23.65;102266.33;1664331;86;21070;-89
2021/10/20 08:52:55;;;;;;;9.13;2.85;;;;;;;18.88;24.84;102264.81;1663555;86;21140;-87
2021/10/20 08:55:22;;;;;;;5.47;2.60;;;;;;;17.97;26.03;102258.98;1657312;86;21037;-88
2021/10/20 08:57:54;;;;;;;4.72;2.47;;;;;;;17.12;27.15;102257.75;1646950;87;21210;-87
2021/10/20 09:00:22;;;;;;;8.63;2.20;;;;;;;16.39;27.77;102259.33;1638570;86;21092;-87
2021/10/20 09:02:49;;;;;;;4.80;2.35;;;;;;;15.80;28.78;102253.27;1648211;85;21459;-88
2021/10/20 09:05:18;;;;;;;5.50;2.52;;;;;;;15.30;29.50;102246.90;1654097;86;21100;-88
2021/10/20 09:07:47;;;;;;;7.70;2.60;;;;;;;14.81;30.26;102251.33;1654595;86;21101;-87
2021/10/20 09:10:14;;;;;;;9.70;3.00;;;;;;;14.39;31.18;102257.11;1655650;86;20978;-87
2021/10/20 09:12:41;;;;;;;5.50;2.45;;;;;;;13.94;32.32;102254.66;1656128;86;21546;-89
2021/10/20 09:17:53;;;;;;;8.65;2.35;;;;;;;13.14;34.35;102256.17;1581562;89;21102;-87
2021/10/20 09:20:30;;;;;;;11.53;2.37;;;;;;;13.14;34.35;102256.17;1510982;94;21124;-88
2021/10/20 09:23:06;;;;;;;6.65;2.10;;;;;;;12.96;34.87;102252.24;1511714;94;21642;-86
2021/10/20 09:25:43;;;;;;;4.78;2.00;;;;;;;12.78;34.87;102251.00;1511318;94;21068;-87
2021/10/20 09:28:15;;;;;;;5.90;2.17;;;;;;;12.59;34.82;102248.89;1508783;93;21097;-86
2021/10/20 09:30:42;;;;;;;9.43;3.05;;;;;;;12.46;35.35;102252.11;1451217;98;22224;-87
2021/10/20 09:33:09;;;;;;;10.48;3.15;;;;;;;12.21;35.17;102241.47;1452751;98;21077;-86
2021/10/20 09:35:35;;;;;;;7.30;3.17;;;;;;;12.03;36.06;102232.89;1452764;98;21046;-87
2021/10/20 09:38:02;;;;;;;8.18;2.98;;;;;;;12.09;36.59;102233.00;1452750;98;21034;-87
2021/10/20 09:40:39;;;;;;;5.33;2.30;;;;;;;12.02;36.64;102232.58;1462027;97;21578;-86
2021/10/20 09:43:06;;;;;;;6.42;2.47;;;;;;;11.94;36.91;102231.56;1464003;97;21141;-86
2021/10/20 09:45:39;;;;;;;14.50;11.20;;;;;;;11.90;37.06;102232.23;1464200;97;21041;-86
2021/10/20 09:48:13;;;;;;;7.75;4.45;;;;;;;11.75;37.36;102225.32;1402183;101;21066;-86
2021/10/20 09:50:54;;;;;;;6.62;2.50;;;;;;;11.60;37.33;102224.89;1385089;103;21144;-86
2021/10/20 09:53:21;;;;;;;4.97;2.20;;;;;;;11.54;37.70;102229.85;1360050;105;21188;-84
2021/10/20 09:55:47;;;;;;;3.65;2.00;;;;;;;11.53;37.74;102230.38;1374600;103;21720;-85
2021/10/20 09:58:15;;;;;;;8.13;2.42;;;;;;;11.52;38.02;102226.55;1375862;103;21047;-87
2021/10/20 10:00:42;;;;;;;6.03;2.33;;;;;;;11.46;37.99;102219.34;1371531;102;21169;-87
2021/10/20 10:03:10;;;;;;;9.15;2.98;;;;;;;11.42;37.61;102221.68;1365109;103;21148;-86
2021/10/20 10:05:36;;;;;;;8.00;2.90;;;;;;;11.40;38.36;102217.55;1384254;103;21442;-86
2021/10/20 10:08:03;;;;;;;8.53;2.80;;;;;;;11.40;38.36;102218.38;1384493;103;21227;-85
2021/10/20 10:10:30;;;;;;;9.13;2.83;;;;;;;11.37;38.53;102220.99;1384109;103;21157;-87
2021/10/20 10:13:09;;;;;;;7.55;2.70;;;;;;;11.40;38.45;102219.72;1384322;103;21177;-86
2021/10/20 10:15:41;;;;;;;6.22;2.27;;;;;;;11.39;38.47;102221.31;1373704;103;21864;-82
2021/10/20 10:18:09;;;;;;;7.58;2.22;;;;;;;11.38;38.41;102215.06;1451254;97;21214;-83
2021/10/20 10:20:41;;;;;;;6.97;2.50;;;;;;;11.39;37.95;102211.86;1448697;97;21184;-82
2021/10/20 10:23:21;;;;;;;4.70;2.20;;;;;;;11.40;38.42;102206.22;1410971;99;21185;-83
2021/10/20 10:26:06;;;;;;;5.97;2.08;;;;;;;11.43;38.49;102199.55;1443047;99;21146;-82
2021/10/20 10:28:35;;;;;;;12.78;2.70;;;;;;;11.34;38.25;102198.50;1397374;102;21098;-82
2021/10/20 10:31:11;;;;;;;8.15;2.35;;;;;;;11.29;38.39;102190.77;1396981;102;21710;-83
2021/10/20 10:33:53;;;;;;;7.83;2.12;;;;;;;11.27;38.27;102192.89;1397452;102;21215;-81
2021/10/20 10:36:24;;;;;;;9.18;2.67;;;;;;;11.28;38.66;102188.61;1396790;102;21184;-80
2021/10/20 10:39:04;;;;;;;11.08;2.50;;;;;;;11.34;38.36;102196.33;1396598;102;21176;-82
2021/10/20 10:41:42;;;;;;;4.75;1.95;;;;;;;11.34;38.15;102193.63;1396915;102;21233;-83
2021/10/20 10:44:12;;;;;;;12.15;2.80;;;;;;;11.36;38.51;102188.31;1399897;101;21051;-81
2021/10/20 10:49:42;;;;;;;13.18;3.77;;;;;;;11.45;38.74;102171.28;1430429;96;21188;-82
2021/10/20 10:52:34;;;;;;;;;;;;;;;11.49;37.63;102171.12;1488219;95;21588;-82
2021/10/20 10:55:18;;;;;;;11.28;4.22;;;;;;;11.50;38.10;102170.09;1493155;93;20606;-81
2021/10/20 10:57:55;;;;;;;15.32;4.47;;;;;;;11.54;38.29;102167.75;1513988;94;21139;-78
2021/10/20 11:00:26;;;;;;;16.15;5.03;;;;;;;11.56;38.14;102164.31;1500255;94;21203;-82
2021/10/20 11:03:08;;;;;;;11.90;5.08;;;;;;;11.59;37.94;102161.16;1490747;96;21682;-82
2021/10/20 11:05:34;;;;;;;14.98;5.53;;;;;;;11.63;38.31;102156.12;1488343;96;21164;-84
2021/10/20 11:08:11;;;;;;;12.10;4.58;;;;;;;11.65;37.94;102158.04;1490339;96;20979;-83
2021/10/20 11:10:41;;;;;;;12.80;4.75;;;;;;;11.64;38.39;102154.52;1435775;98;21191;-81
2021/10/20 11:13:09;;;;;;;14.33;5.10;;;;;;;11.64;38.06;102158.57;1396495;102;21132;-86
2021/10/20 11:15:36;;;;;;;14.15;5.28;;;;;;;11.64;38.52;102150.47;1396058;102;21130;-83
2021/10/20 11:18:03;;;;;;;18.82;5.45;;;;;;;11.68;38.52;102157.61;1395201;99;21804;-82
2021/10/20 11:20:36;;;;;;;13.00;5.10;;;;;;;11.71;38.27;102158.50;1465658;95;21127;-83
2021/10/20 11:23:08;;;;;;;15.60;4.97;;;;;;;11.77;38.38;102164.34;1480527;95;21116;-83